sensor_id;sensor_type;location;lat;lon;timestamp;P1;durP1;ratioP1;P2;durP2;ratioP2
13816;SDS011;6979;52.116;5.286;2022-07-25T00:00:37;4.07;;;3.77;;
13816;SDS011;6979;52.116;5.286;2022-07-25T00:03:05;4.43;;;4.13;;
13816;SDS011;6979;52.116;5.286;2022-07-25T00:05:31;4.93;;;4.63;;
13816;SDS011;6979;52.116;5.286;2022-07-25T00:07:58;5.37;;;5.07;;
13816;SDS011;6979;52.116;5.286;2022-07-25T00:10:25;4.60;;;4.30;;
13816;SDS011;6979;52.116;5.286;2022-07-25T00:12:53;4.50;;;4.27;;
13816;SDS011;6979;52.116;5.286;2022-07-25T00:15:20;4.77;;;4.47;;
13816;SDS011;6979;52.116;5.286;2022-07-25T00:17:47;5.00;;;4.70;;
13816;SDS011;6979;52.116;5.286;2022-07-25T00:20:14;4.43;;;4.13;;
13816;SDS011;6979;52.116;5.286;2022-07-25T00:22:41;4.73;;;4.43;;
13816;SDS011;6979;52.116;5.286;2022-07-25T00:25:08;4.87;;;4.57;;
13816;SDS011;6979;52.116;5.286;2022-07-25T00:27:35;4.77;;;4.50;;
13816;SDS011;6979;52.116;5.286;2022-07-25T00:30:04;4.60;;;4.30;;
13816;SDS011;6979;52.116;5.286;2022-07-25T00:32:31;4.63;;;4.33;;
13816;SDS011;6979;52.116;5.286;2022-07-25T00:34:58;4.80;;;4.43;;
13816;SDS011;6979;52.116;5.286;2022-07-25T00:37:25;4.60;;;4.30;;
13816;SDS011;6979;52.116;5.286;2022-07-25T00:39:52;4.70;;;4.40;;
13816;SDS011;6979;52.116;5.286;2022-07-25T00:42:18;4.93;;;4.57;;
13816;SDS011;6979;52.116;5.286;2022-07-25T00:44:48;5.03;;;4.73;;
13816;SDS011;6979;52.116;5.286;2022-07-25T00:47:16;5.50;;;5.20;;
13816;SDS011;6979;52.116;5.286;2022-07-25T00:49:43;4.90;;;4.60;;
13816;SDS011;6979;52.116;5.286;2022-07-25T00:52:10;5.30;;;4.90;;
13816;SDS011;6979;52.116;5.286;2022-07-25T00:54:37;5.40;;;5.00;;
13816;SDS011;6979;52.116;5.286;2022-07-25T00:57:04;5.27;;;4.87;;
13816;SDS011;6979;52.116;5.286;2022-07-25T00:59:31;4.93;;;4.63;;
13816;SDS011;6979;52.116;5.286;2022-07-25T01:01:58;5.00;;;4.70;;
13816;SDS011;6979;52.116;5.286;2022-07-25T01:04:26;4.80;;;4.50;;
13816;SDS011;6979;52.116;5.286;2022-07-25T01:06:53;4.13;;;3.93;;
13816;SDS011;6979;52.116;5.286;2022-07-25T01:09:20;6.10;;;5.60;;
13816;SDS011;6979;52.116;5.286;2022-07-25T01:11:47;5.60;;;5.20;;
13816;SDS011;6979;52.116;5.286;2022-07-25T01:14:14;5.43;;;5.03;;
13816;SDS011;6979;52.116;5.286;2022-07-25T01:16:41;4.87;;;4.57;;
13816;SDS011;6979;52.116;5.286;2022-07-25T01:19:08;5.03;;;4.73;;
13816;SDS011;6979;52.116;5.286;2022-07-25T01:21:37;4.73;;;4.47;;
13816;SDS011;6979;52.116;5.286;2022-07-25T01:24:05;5.60;;;5.20;;
13816;SDS011;6979;52.116;5.286;2022-07-25T01:26:32;4.70;;;4.40;;
13816;SDS011;6979;52.116;5.286;2022-07-25T01:28:59;5.20;;;4.90;;
13816;SDS011;6979;52.116;5.286;2022-07-25T01:31:26;5.67;;;5.27;;
13816;SDS011;6979;52.116;5.286;2022-07-25T01:33:53;5.97;;;5.57;;
13816;SDS011;6979;52.116;5.286;2022-07-25T01:36:20;5.50;;;4.97;;
13816;SDS011;6979;52.116;5.286;2022-07-25T01:38:48;5.33;;;4.93;;
13816;SDS011;6979;52.116;5.286;2022-07-25T01:41:15;5.23;;;4.93;;
13816;SDS011;6979;52.116;5.286;2022-07-25T01:43:42;5.10;;;4.80;;
13816;SDS011;6979;52.116;5.286;2022-07-25T01:46:08;5.83;;;5.43;;
13816;SDS011;6979;52.116;5.286;2022-07-25T01:48:35;4.73;;;4.33;;
13816;SDS011;6979;52.116;5.286;2022-07-25T01:51:02;4.87;;;4.47;;
13816;SDS011;6979;52.116;5.286;2022-07-25T01:53:29;5.23;;;4.90;;
13816;SDS011;6979;52.116;5.286;2022-07-25T01:55:57;5.10;;;4.80;;
13816;SDS011;6979;52.116;5.286;2022-07-25T01:58:25;5.47;;;5.00;;
13816;SDS011;6979;52.116;5.286;2022-07-25T02:00:52;5.17;;;4.83;;
13816;SDS011;6979;52.116;5.286;2022-07-25T02:03:19;4.60;;;4.30;;
13816;SDS011;6979;52.116;5.286;2022-07-25T02:05:54;5.10;;;4.80;;
13816;SDS011;6979;52.116;5.286;2022-07-25T02:08:21;5.10;;;4.80;;
13816;SDS011;6979;52.116;5.286;2022-07-25T02:10:48;5.73;;;5.33;;
13816;SDS011;6979;52.116;5.286;2022-07-25T02:13:16;5.30;;;4.90;;
13816;SDS011;6979;52.116;5.286;2022-07-25T02:15:43;5.20;;;4.87;;
13816;SDS011;6979;52.116;5.286;2022-07-25T02:18:10;4.47;;;4.27;;
13816;SDS011;6979;52.116;5.286;2022-07-25T02:20:37;13.00;;;11.87;;
13816;SDS011;6979;52.116;5.286;2022-07-25T02:23:04;11.00;;;10.10;;
13816;SDS011;6979;52.116;5.286;2022-07-25T02:25:31;7.67;;;7.17;;
13816;SDS011;6979;52.116;5.286;2022-07-25T02:27:58;6.30;;;5.80;;
13816;SDS011;6979;52.116;5.286;2022-07-25T02:30:26;6.13;;;5.73;;
13816;SDS011;6979;52.116;5.286;2022-07-25T02:32:53;5.70;;;5.40;;
13816;SDS011;6979;52.116;5.286;2022-07-25T02:35:20;6.43;;;5.93;;
13816;SDS011;6979;52.116;5.286;2022-07-25T02:37:47;6.47;;;6.07;;
13816;SDS011;6979;52.116;5.286;2022-07-25T02:40:14;6.50;;;6.00;;
13816;SDS011;6979;52.116;5.286;2022-07-25T02:42:41;6.40;;;6.00;;
13816;SDS011;6979;52.116;5.286;2022-07-25T02:45:08;6.13;;;5.63;;
13816;SDS011;6979;52.116;5.286;2022-07-25T02:47:36;6.13;;;5.73;;
13816;SDS011;6979;52.116;5.286;2022-07-25T02:50:03;6.20;;;5.73;;
13816;SDS011;6979;52.116;5.286;2022-07-25T02:52:31;6.33;;;5.93;;
13816;SDS011;6979;52.116;5.286;2022-07-25T02:54:58;5.57;;;5.17;;
13816;SDS011;6979;52.116;5.286;2022-07-25T02:57:24;6.90;;;6.40;;
13816;SDS011;6979;52.116;5.286;2022-07-25T02:59:51;7.13;;;6.70;;
13816;SDS011;6979;52.116;5.286;2022-07-25T03:02:18;6.20;;;5.80;;
13816;SDS011;6979;52.116;5.286;2022-07-25T03:04:46;6.30;;;5.80;;
13816;SDS011;6979;52.116;5.286;2022-07-25T03:07:13;6.23;;;5.67;;
13816;SDS011;6979;52.116;5.286;2022-07-25T03:09:40;5.90;;;5.60;;
13816;SDS011;6979;52.116;5.286;2022-07-25T03:12:06;6.60;;;6.20;;
13816;SDS011;6979;52.116;5.286;2022-07-25T03:14:33;6.07;;;5.70;;
13816;SDS011;6979;52.116;5.286;2022-07-25T03:17:00;6.07;;;5.73;;
13816;SDS011;6979;52.116;5.286;2022-07-25T03:19:27;6.37;;;5.97;;
13816;SDS011;6979;52.116;5.286;2022-07-25T03:21:55;6.57;;;6.17;;
13816;SDS011;6979;52.116;5.286;2022-07-25T03:24:22;6.73;;;6.23;;
13816;SDS011;6979;52.116;5.286;2022-07-25T03:26:48;7.53;;;7.03;;
13816;SDS011;6979;52.116;5.286;2022-07-25T03:29:15;7.03;;;6.63;;
13816;SDS011;6979;52.116;5.286;2022-07-25T03:31:42;7.37;;;6.87;;
13816;SDS011;6979;52.116;5.286;2022-07-25T03:34:09;7.23;;;6.73;;
13816;SDS011;6979;52.116;5.286;2022-07-25T03:36:36;6.53;;;6.03;;
13816;SDS011;6979;52.116;5.286;2022-07-25T03:39:04;6.33;;;5.93;;
13816;SDS011;6979;52.116;5.286;2022-07-25T03:41:31;7.10;;;6.60;;
13816;SDS011;6979;52.116;5.286;2022-07-25T03:43:58;7.10;;;6.60;;
13816;SDS011;6979;52.116;5.286;2022-07-25T03:46:24;7.07;;;6.63;;
13816;SDS011;6979;52.116;5.286;2022-07-25T03:48:51;7.00;;;6.57;;
13816;SDS011;6979;52.116;5.286;2022-07-25T03:51:19;7.33;;;6.73;;
13816;SDS011;6979;52.116;5.286;2022-07-25T03:53:46;7.60;;;7.10;;
13816;SDS011;6979;52.116;5.286;2022-07-25T03:56:29;6.87;;;6.37;;
13816;SDS011;6979;52.116;5.286;2022-07-25T03:58:57;7.67;;;7.17;;
13816;SDS011;6979;52.116;5.286;2022-07-25T04:01:23;7.20;;;6.70;;
13816;SDS011;6979;52.116;5.286;2022-07-25T04:03:50;7.40;;;6.97;;
13816;SDS011;6979;52.116;5.286;2022-07-25T04:06:17;8.50;;;7.60;;
13816;SDS011;6979;52.116;5.286;2022-07-25T04:08:44;6.77;;;6.37;;
13816;SDS011;6979;52.116;5.286;2022-07-25T04:11:11;7.57;;;7.07;;
13816;SDS011;6979;52.116;5.286;2022-07-25T04:13:39;7.23;;;6.73;;
13816;SDS011;6979;52.116;5.286;2022-07-25T04:16:06;7.80;;;7.20;;
13816;SDS011;6979;52.116;5.286;2022-07-25T04:18:33;6.63;;;6.23;;
13816;SDS011;6979;52.116;5.286;2022-07-25T04:21:00;7.40;;;6.87;;
13816;SDS011;6979;52.116;5.286;2022-07-25T04:23:27;7.70;;;7.20;;
13816;SDS011;6979;52.116;5.286;2022-07-25T04:25:55;8.17;;;7.57;;
13816;SDS011;6979;52.116;5.286;2022-07-25T04:28:22;7.33;;;6.83;;
13816;SDS011;6979;52.116;5.286;2022-07-25T04:30:51;6.80;;;6.40;;
13816;SDS011;6979;52.116;5.286;2022-07-25T04:33:18;6.20;;;5.83;;
13816;SDS011;6979;52.116;5.286;2022-07-25T04:35:45;7.33;;;6.83;;
13816;SDS011;6979;52.116;5.286;2022-07-25T04:38:12;6.93;;;6.43;;
13816;SDS011;6979;52.116;5.286;2022-07-25T04:40:39;7.43;;;6.93;;
13816;SDS011;6979;52.116;5.286;2022-07-25T04:43:06;7.67;;;7.17;;
13816;SDS011;6979;52.116;5.286;2022-07-25T04:45:33;7.70;;;7.20;;
13816;SDS011;6979;52.116;5.286;2022-07-25T04:48:02;7.60;;;7.10;;
13816;SDS011;6979;52.116;5.286;2022-07-25T04:50:29;8.47;;;7.90;;
13816;SDS011;6979;52.116;5.286;2022-07-25T04:52:56;7.33;;;6.83;;
13816;SDS011;6979;52.116;5.286;2022-07-25T04:55:24;8.00;;;7.50;;
13816;SDS011;6979;52.116;5.286;2022-07-25T04:57:51;7.07;;;6.57;;
13816;SDS011;6979;52.116;5.286;2022-07-25T05:00:18;7.60;;;7.00;;
13816;SDS011;6979;52.116;5.286;2022-07-25T05:02:44;7.20;;;6.80;;
13816;SDS011;6979;52.116;5.286;2022-07-25T05:05:12;7.53;;;6.97;;
13816;SDS011;6979;52.116;5.286;2022-07-25T05:07:39;7.40;;;6.90;;
13816;SDS011;6979;52.116;5.286;2022-07-25T05:10:06;7.83;;;7.33;;
13816;SDS011;6979;52.116;5.286;2022-07-25T05:12:33;7.70;;;7.20;;
13816;SDS011;6979;52.116;5.286;2022-07-25T05:15:01;7.33;;;6.73;;
13816;SDS011;6979;52.116;5.286;2022-07-25T05:17:27;7.87;;;7.37;;
13816;SDS011;6979;52.116;5.286;2022-07-25T05:19:55;8.10;;;7.50;;
13816;SDS011;6979;52.116;5.286;2022-07-25T05:22:24;7.57;;;7.10;;
13816;SDS011;6979;52.116;5.286;2022-07-25T05:24:51;7.73;;;7.20;;
13816;SDS011;6979;52.116;5.286;2022-07-25T05:27:17;7.90;;;7.30;;
13816;SDS011;6979;52.116;5.286;2022-07-25T05:29:44;8.70;;;8.10;;
13816;SDS011;6979;52.116;5.286;2022-07-25T05:32:11;7.77;;;7.27;;
13816;SDS011;6979;52.116;5.286;2022-07-25T05:34:38;8.07;;;7.57;;
13816;SDS011;6979;52.116;5.286;2022-07-25T05:37:05;8.70;;;8.10;;
13816;SDS011;6979;52.116;5.286;2022-07-25T05:39:33;7.90;;;7.40;;
13816;SDS011;6979;52.116;5.286;2022-07-25T05:42:01;8.40;;;7.80;;
13816;SDS011;6979;52.116;5.286;2022-07-25T05:44:28;8.30;;;7.70;;
13816;SDS011;6979;52.116;5.286;2022-07-25T05:46:55;7.77;;;7.27;;
13816;SDS011;6979;52.116;5.286;2022-07-25T05:49:21;8.17;;;7.60;;
13816;SDS011;6979;52.116;5.286;2022-07-25T05:51:48;8.87;;;8.17;;
13816;SDS011;6979;52.116;5.286;2022-07-25T05:54:17;8.33;;;7.63;;
13816;SDS011;6979;52.116;5.286;2022-07-25T05:56:45;8.33;;;7.83;;
13816;SDS011;6979;52.116;5.286;2022-07-25T05:59:12;7.57;;;7.07;;
13816;SDS011;6979;52.116;5.286;2022-07-25T06:01:38;10.77;;;9.93;;
13816;SDS011;6979;52.116;5.286;2022-07-25T06:04:05;9.43;;;8.73;;
13816;SDS011;6979;52.116;5.286;2022-07-25T06:06:32;9.50;;;8.80;;
13816;SDS011;6979;52.116;5.286;2022-07-25T06:08:59;9.27;;;8.67;;
13816;SDS011;6979;52.116;5.286;2022-07-25T06:11:26;7.67;;;7.10;;
13816;SDS011;6979;52.116;5.286;2022-07-25T06:13:56;9.17;;;8.50;;
13816;SDS011;6979;52.116;5.286;2022-07-25T06:16:23;42.70;;;38.63;;
13816;SDS011;6979;52.116;5.286;2022-07-25T06:18:50;16.73;;;15.33;;
13816;SDS011;6979;52.116;5.286;2022-07-25T06:21:16;10.13;;;9.33;;
13816;SDS011;6979;52.116;5.286;2022-07-25T06:23:43;8.90;;;8.30;;
13816;SDS011;6979;52.116;5.286;2022-07-25T06:26:10;8.10;;;7.50;;
13816;SDS011;6979;52.116;5.286;2022-07-25T06:28:37;6.20;;;5.80;;
13816;SDS011;6979;52.116;5.286;2022-07-25T06:31:05;5.73;;;5.43;;
13816;SDS011;6979;52.116;5.286;2022-07-25T06:33:32;5.13;;;4.83;;
13816;SDS011;6979;52.116;5.286;2022-07-25T06:35:59;5.70;;;5.30;;
13816;SDS011;6979;52.116;5.286;2022-07-25T06:38:26;5.60;;;5.17;;
13816;SDS011;6979;52.116;5.286;2022-07-25T06:40:53;4.97;;;4.67;;
13816;SDS011;6979;52.116;5.286;2022-07-25T06:43:19;5.10;;;4.70;;
13816;SDS011;6979;52.116;5.286;2022-07-25T06:45:46;4.27;;;4.07;;
13816;SDS011;6979;52.116;5.286;2022-07-25T06:48:15;4.37;;;4.07;;
13816;SDS011;6979;52.116;5.286;2022-07-25T06:50:42;4.70;;;4.40;;
13816;SDS011;6979;52.116;5.286;2022-07-25T06:53:09;3.97;;;3.63;;
13816;SDS011;6979;52.116;5.286;2022-07-25T06:55:36;3.33;;;3.10;;
13816;SDS011;6979;52.116;5.286;2022-07-25T06:58:03;3.73;;;3.53;;
13816;SDS011;6979;52.116;5.286;2022-07-25T07:00:29;4.50;;;4.20;;
13816;SDS011;6979;52.116;5.286;2022-07-25T07:02:57;3.50;;;3.20;;
13816;SDS011;6979;52.116;5.286;2022-07-25T07:05:28;3.40;;;3.13;;
13816;SDS011;6979;52.116;5.286;2022-07-25T07:07:56;3.07;;;2.67;;
13816;SDS011;6979;52.116;5.286;2022-07-25T07:10:23;2.50;;;2.30;;
13816;SDS011;6979;52.116;5.286;2022-07-25T07:13:00;4.73;;;2.67;;
13816;SDS011;6979;52.116;5.286;2022-07-25T07:15:28;2.60;;;2.40;;
13816;SDS011;6979;52.116;5.286;2022-07-25T07:17:55;2.97;;;2.33;;
13816;SDS011;6979;52.116;5.286;2022-07-25T07:20:21;2.37;;;2.23;;
13816;SDS011;6979;52.116;5.286;2022-07-25T07:22:50;2.30;;;2.13;;
13816;SDS011;6979;52.116;5.286;2022-07-25T07:25:17;2.50;;;2.40;;
13816;SDS011;6979;52.116;5.286;2022-07-25T07:27:45;6.10;;;5.63;;
13816;SDS011;6979;52.116;5.286;2022-07-25T07:30:12;5.10;;;4.70;;
13816;SDS011;6979;52.116;5.286;2022-07-25T07:32:39;3.33;;;3.13;;
13816;SDS011;6979;52.116;5.286;2022-07-25T07:35:07;3.63;;;2.77;;
13816;SDS011;6979;52.116;5.286;2022-07-25T07:37:35;2.33;;;2.23;;
13816;SDS011;6979;52.116;5.286;2022-07-25T07:40:03;2.70;;;2.50;;
13816;SDS011;6979;52.116;5.286;2022-07-25T07:42:35;2.20;;;2.10;;
13816;SDS011;6979;52.116;5.286;2022-07-25T07:45:09;1.90;;;1.80;;
13816;SDS011;6979;52.116;5.286;2022-07-25T07:47:39;3.00;;;2.17;;
13816;SDS011;6979;52.116;5.286;2022-07-25T07:50:06;1.80;;;1.70;;
13816;SDS011;6979;52.116;5.286;2022-07-25T07:52:35;2.03;;;1.93;;
13816;SDS011;6979;52.116;5.286;2022-07-25T07:55:04;1.80;;;1.70;;
13816;SDS011;6979;52.116;5.286;2022-07-25T07:57:49;2.47;;;1.87;;
13816;SDS011;6979;52.116;5.286;2022-07-25T08:00:16;2.53;;;2.40;;
13816;SDS011;6979;52.116;5.286;2022-07-25T08:02:44;2.10;;;2.00;;
13816;SDS011;6979;52.116;5.286;2022-07-25T08:05:13;2.43;;;2.33;;
13816;SDS011;6979;52.116;5.286;2022-07-25T08:07:46;1.63;;;1.53;;
13816;SDS011;6979;52.116;5.286;2022-07-25T08:10:17;2.10;;;1.73;;
13816;SDS011;6979;52.116;5.286;2022-07-25T08:12:45;1.70;;;1.60;;
13816;SDS011;6979;52.116;5.286;2022-07-25T08:15:11;1.67;;;1.57;;
13816;SDS011;6979;52.116;5.286;2022-07-25T08:17:38;1.57;;;1.47;;
13816;SDS011;6979;52.116;5.286;2022-07-25T08:20:06;1.20;;;1.20;;
13816;SDS011;6979;52.116;5.286;2022-07-25T08:22:37;1.20;;;1.20;;
13816;SDS011;6979;52.116;5.286;2022-07-25T08:25:05;1.67;;;1.57;;
13816;SDS011;6979;52.116;5.286;2022-07-25T08:27:34;1.70;;;1.60;;
13816;SDS011;6979;52.116;5.286;2022-07-25T08:30:02;1.40;;;1.40;;
13816;SDS011;6979;52.116;5.286;2022-07-25T08:32:30;5.47;;;1.93;;
13816;SDS011;6979;52.116;5.286;2022-07-25T08:34:58;3.23;;;1.53;;
13816;SDS011;6979;52.116;5.286;2022-07-25T08:37:26;1.40;;;1.30;;
13816;SDS011;6979;52.116;5.286;2022-07-25T08:39:53;2.83;;;1.47;;
13816;SDS011;6979;52.116;5.286;2022-07-25T08:42:20;1.70;;;1.60;;
13816;SDS011;6979;52.116;5.286;2022-07-25T08:44:57;2.33;;;1.40;;
13816;SDS011;6979;52.116;5.286;2022-07-25T08:47:28;1.27;;;1.20;;
13816;SDS011;6979;52.116;5.286;2022-07-25T08:49:55;1.30;;;1.30;;
13816;SDS011;6979;52.116;5.286;2022-07-25T08:52:22;1.83;;;1.67;;
13816;SDS011;6979;52.116;5.286;2022-07-25T08:54:49;1.93;;;1.83;;
13816;SDS011;6979;52.116;5.286;2022-07-25T08:57:16;1.60;;;1.40;;
13816;SDS011;6979;52.116;5.286;2022-07-25T08:59:43;2.30;;;1.97;;
13816;SDS011;6979;52.116;5.286;2022-07-25T09:02:13;2.60;;;1.77;;
13816;SDS011;6979;52.116;5.286;2022-07-25T09:04:40;2.10;;;1.87;;
13816;SDS011;6979;52.116;5.286;2022-07-25T09:07:08;3.33;;;1.40;;
13816;SDS011;6979;52.116;5.286;2022-07-25T09:09:36;2.30;;;1.60;;
13816;SDS011;6979;52.116;5.286;2022-07-25T09:12:04;2.27;;;2.03;;
13816;SDS011;6979;52.116;5.286;2022-07-25T09:14:39;1.37;;;1.30;;
13816;SDS011;6979;52.116;5.286;2022-07-25T09:17:07;2.50;;;1.77;;
13816;SDS011;6979;52.116;5.286;2022-07-25T09:19:35;1.83;;;1.50;;
13816;SDS011;6979;52.116;5.286;2022-07-25T09:22:02;1.83;;;1.30;;
13816;SDS011;6979;52.116;5.286;2022-07-25T09:24:30;2.37;;;1.60;;
13816;SDS011;6979;52.116;5.286;2022-07-25T09:26:59;1.50;;;1.40;;
13816;SDS011;6979;52.116;5.286;2022-07-25T09:29:33;1.47;;;1.37;;
13816;SDS011;6979;52.116;5.286;2022-07-25T09:32:01;3.17;;;1.50;;
13816;SDS011;6979;52.116;5.286;2022-07-25T09:34:41;3.03;;;1.60;;
13816;SDS011;6979;52.116;5.286;2022-07-25T09:37:11;8.77;;;7.93;;
13816;SDS011;6979;52.116;5.286;2022-07-25T09:39:39;3.37;;;3.07;;
13816;SDS011;6979;52.116;5.286;2022-07-25T09:42:14;3.37;;;2.27;;
13816;SDS011;6979;52.116;5.286;2022-07-25T09:44:56;2.50;;;2.00;;
13816;SDS011;6979;52.116;5.286;2022-07-25T09:47:28;2.30;;;1.90;;
13816;SDS011;6979;52.116;5.286;2022-07-25T09:49:57;2.13;;;1.80;;
13816;SDS011;6979;52.116;5.286;2022-07-25T09:52:24;1.77;;;1.63;;
13816;SDS011;6979;52.116;5.286;2022-07-25T09:54:51;1.67;;;1.57;;
13816;SDS011;6979;52.116;5.286;2022-07-25T09:57:19;1.70;;;1.50;;
13816;SDS011;6979;52.116;5.286;2022-07-25T09:59:46;2.40;;;2.00;;
13816;SDS011;6979;52.116;5.286;2022-07-25T10:02:15;2.77;;;2.40;;
13816;SDS011;6979;52.116;5.286;2022-07-25T10:04:55;2.13;;;1.93;;
13816;SDS011;6979;52.116;5.286;2022-07-25T10:07:37;2.33;;;1.60;;
13816;SDS011;6979;52.116;5.286;2022-07-25T10:10:06;1.90;;;1.80;;
13816;SDS011;6979;52.116;5.286;2022-07-25T10:12:33;2.40;;;1.87;;
13816;SDS011;6979;52.116;5.286;2022-07-25T10:15:06;2.40;;;1.87;;
13816;SDS011;6979;52.116;5.286;2022-07-25T10:17:35;2.03;;;1.83;;
13816;SDS011;6979;52.116;5.286;2022-07-25T10:20:05;2.53;;;2.00;;
13816;SDS011;6979;52.116;5.286;2022-07-25T10:22:35;1.73;;;1.57;;
13816;SDS011;6979;52.116;5.286;2022-07-25T10:25:06;2.17;;;2.03;;
13816;SDS011;6979;52.116;5.286;2022-07-25T10:27:40;5.97;;;4.67;;
13816;SDS011;6979;52.116;5.286;2022-07-25T10:30:09;2.93;;;2.50;;
13816;SDS011;6979;52.116;5.286;2022-07-25T10:32:48;3.57;;;2.50;;
13816;SDS011;6979;52.116;5.286;2022-07-25T10:35:17;2.43;;;2.23;;
13816;SDS011;6979;52.116;5.286;2022-07-25T10:37:44;2.27;;;1.90;;
13816;SDS011;6979;52.116;5.286;2022-07-25T10:40:23;3.00;;;2.13;;
13816;SDS011;6979;52.116;5.286;2022-07-25T10:42:55;2.33;;;2.10;;
13816;SDS011;6979;52.116;5.286;2022-07-25T10:45:32;2.63;;;2.10;;
13816;SDS011;6979;52.116;5.286;2022-07-25T10:48:05;3.03;;;2.20;;
13816;SDS011;6979;52.116;5.286;2022-07-25T10:50:33;2.27;;;2.07;;
13816;SDS011;6979;52.116;5.286;2022-07-25T10:53:00;4.40;;;2.20;;
13816;SDS011;6979;52.116;5.286;2022-07-25T10:55:33;3.03;;;1.90;;
13816;SDS011;6979;52.116;5.286;2022-07-25T10:58:02;2.77;;;2.00;;
13816;SDS011;6979;52.116;5.286;2022-07-25T11:00:31;2.50;;;2.17;;
13816;SDS011;6979;52.116;5.286;2022-07-25T11:02:58;2.30;;;2.10;;
13816;SDS011;6979;52.116;5.286;2022-07-25T11:05:26;3.50;;;1.60;;
13816;SDS011;6979;52.116;5.286;2022-07-25T11:07:55;2.83;;;1.60;;
13816;SDS011;6979;52.116;5.286;2022-07-25T11:10:25;3.80;;;2.33;;
13816;SDS011;6979;52.116;5.286;2022-07-25T11:12:53;3.00;;;2.67;;
13816;SDS011;6979;52.116;5.286;2022-07-25T11:15:21;3.23;;;2.20;;
13816;SDS011;6979;52.116;5.286;2022-07-25T11:17:49;2.97;;;2.77;;
13816;SDS011;6979;52.116;5.286;2022-07-25T11:20:17;4.13;;;2.70;;
13816;SDS011;6979;52.116;5.286;2022-07-25T11:22:49;3.33;;;2.90;;
13816;SDS011;6979;52.116;5.286;2022-07-25T11:25:19;4.10;;;2.83;;
13816;SDS011;6979;52.116;5.286;2022-07-25T11:27:48;8.47;;;3.03;;
13816;SDS011;6979;52.116;5.286;2022-07-25T11:30:20;3.07;;;2.83;;
13816;SDS011;6979;52.116;5.286;2022-07-25T11:32:47;2.57;;;2.37;;
13816;SDS011;6979;52.116;5.286;2022-07-25T11:35:15;2.93;;;2.67;;
13816;SDS011;6979;52.116;5.286;2022-07-25T11:37:46;3.83;;;2.80;;
13816;SDS011;6979;52.116;5.286;2022-07-25T11:40:15;4.83;;;2.50;;
13816;SDS011;6979;52.116;5.286;2022-07-25T11:42:44;6.17;;;3.00;;
13816;SDS011;6979;52.116;5.286;2022-07-25T11:45:16;4.63;;;3.20;;
13816;SDS011;6979;52.116;5.286;2022-07-25T11:47:44;4.47;;;2.67;;
13816;SDS011;6979;52.116;5.286;2022-07-25T11:50:12;2.63;;;2.23;;
13816;SDS011;6979;52.116;5.286;2022-07-25T11:52:40;2.67;;;2.43;;
13816;SDS011;6979;52.116;5.286;2022-07-25T11:55:10;2.53;;;2.27;;
13816;SDS011;6979;52.116;5.286;2022-07-25T11:57:40;2.50;;;2.30;;
13816;SDS011;6979;52.116;5.286;2022-07-25T12:00:14;4.80;;;2.63;;
13816;SDS011;6979;52.116;5.286;2022-07-25T12:02:43;4.87;;;2.50;;
13816;SDS011;6979;52.116;5.286;2022-07-25T12:05:12;2.63;;;2.43;;
13816;SDS011;6979;52.116;5.286;2022-07-25T12:07:40;4.77;;;2.87;;
13816;SDS011;6979;52.116;5.286;2022-07-25T12:10:10;3.80;;;2.70;;
13816;SDS011;6979;52.116;5.286;2022-07-25T12:12:43;4.13;;;2.67;;
13816;SDS011;6979;52.116;5.286;2022-07-25T12:15:14;2.80;;;2.33;;
13816;SDS011;6979;52.116;5.286;2022-07-25T12:17:42;2.60;;;2.40;;
13816;SDS011;6979;52.116;5.286;2022-07-25T12:20:11;4.07;;;2.50;;
13816;SDS011;6979;52.116;5.286;2022-07-25T12:22:40;3.43;;;2.37;;
13816;SDS011;6979;52.116;5.286;2022-07-25T12:25:07;4.67;;;2.87;;
13816;SDS011;6979;52.116;5.286;2022-07-25T12:27:35;5.30;;;2.37;;
13816;SDS011;6979;52.116;5.286;2022-07-25T12:30:02;3.30;;;2.13;;
13816;SDS011;6979;52.116;5.286;2022-07-25T12:32:31;4.07;;;2.63;;
13816;SDS011;6979;52.116;5.286;2022-07-25T12:34:58;4.63;;;2.70;;
13816;SDS011;6979;52.116;5.286;2022-07-25T12:37:25;3.27;;;2.10;;
13816;SDS011;6979;52.116;5.286;2022-07-25T12:39:52;3.60;;;2.27;;
13816;SDS011;6979;52.116;5.286;2022-07-25T12:42:19;6.67;;;3.33;;
13816;SDS011;6979;52.116;5.286;2022-07-25T12:44:46;5.30;;;3.23;;
13816;SDS011;6979;52.116;5.286;2022-07-25T12:47:13;3.10;;;2.20;;
13816;SDS011;6979;52.116;5.286;2022-07-25T12:49:42;2.63;;;2.20;;
13816;SDS011;6979;52.116;5.286;2022-07-25T12:52:08;2.37;;;2.03;;
13816;SDS011;6979;52.116;5.286;2022-07-25T12:54:35;3.73;;;2.20;;
13816;SDS011;6979;52.116;5.286;2022-07-25T12:57:02;3.77;;;1.90;;
13816;SDS011;6979;52.116;5.286;2022-07-25T12:59:29;2.40;;;2.10;;
13816;SDS011;6979;52.116;5.286;2022-07-25T13:01:56;2.43;;;1.87;;
13816;SDS011;6979;52.116;5.286;2022-07-25T13:04:23;2.57;;;1.97;;
13816;SDS011;6979;52.116;5.286;2022-07-25T13:06:52;2.17;;;1.97;;
13816;SDS011;6979;52.116;5.286;2022-07-25T13:09:20;2.57;;;2.00;;
13816;SDS011;6979;52.116;5.286;2022-07-25T13:11:47;4.03;;;2.33;;
13816;SDS011;6979;52.116;5.286;2022-07-25T13:14:16;3.73;;;2.37;;
13816;SDS011;6979;52.116;5.286;2022-07-25T13:16:44;1.93;;;1.50;;
13816;SDS011;6979;52.116;5.286;2022-07-25T13:19:12;3.27;;;2.20;;
13816;SDS011;6979;52.116;5.286;2022-07-25T13:21:39;3.30;;;2.60;;
13816;SDS011;6979;52.116;5.286;2022-07-25T13:24:08;3.97;;;2.53;;
13816;SDS011;6979;52.116;5.286;2022-07-25T13:26:36;4.07;;;2.50;;
13816;SDS011;6979;52.116;5.286;2022-07-25T13:29:04;3.63;;;2.80;;
13816;SDS011;6979;52.116;5.286;2022-07-25T13:31:32;4.40;;;2.47;;
13816;SDS011;6979;52.116;5.286;2022-07-25T13:33:59;5.23;;;2.80;;
13816;SDS011;6979;52.116;5.286;2022-07-25T13:36:26;4.13;;;2.50;;
13816;SDS011;6979;52.116;5.286;2022-07-25T13:38:53;3.10;;;2.13;;
13816;SDS011;6979;52.116;5.286;2022-07-25T13:41:23;2.70;;;2.03;;
13816;SDS011;6979;52.116;5.286;2022-07-25T13:43:50;2.83;;;1.93;;
13816;SDS011;6979;52.116;5.286;2022-07-25T13:46:18;2.37;;;1.90;;
13816;SDS011;6979;52.116;5.286;2022-07-25T13:48:44;3.23;;;2.07;;
13816;SDS011;6979;52.116;5.286;2022-07-25T13:51:11;2.10;;;1.83;;
13816;SDS011;6979;52.116;5.286;2022-07-25T13:53:38;2.37;;;1.93;;
13816;SDS011;6979;52.116;5.286;2022-07-25T13:56:06;4.17;;;1.87;;
13816;SDS011;6979;52.116;5.286;2022-07-25T13:58:34;3.67;;;1.87;;
13816;SDS011;6979;52.116;5.286;2022-07-25T14:01:01;3.53;;;1.80;;
13816;SDS011;6979;52.116;5.286;2022-07-25T14:03:28;1.63;;;1.53;;
13816;SDS011;6979;52.116;5.286;2022-07-25T14:05:54;2.17;;;1.50;;
13816;SDS011;6979;52.116;5.286;2022-07-25T14:08:21;4.20;;;2.23;;
13816;SDS011;6979;52.116;5.286;2022-07-25T14:10:52;4.20;;;1.70;;
13816;SDS011;6979;52.116;5.286;2022-07-25T14:13:19;4.13;;;2.40;;
13816;SDS011;6979;52.116;5.286;2022-07-25T14:15:47;4.50;;;2.60;;
13816;SDS011;6979;52.116;5.286;2022-07-25T14:18:14;3.03;;;1.77;;
13816;SDS011;6979;52.116;5.286;2022-07-25T14:20:41;2.97;;;1.70;;
13816;SDS011;6979;52.116;5.286;2022-07-25T14:23:08;6.00;;;2.43;;
13816;SDS011;6979;52.116;5.286;2022-07-25T14:25:38;3.53;;;1.50;;
13816;SDS011;6979;52.116;5.286;2022-07-25T14:28:05;3.13;;;1.73;;
13816;SDS011;6979;52.116;5.286;2022-07-25T14:30:35;3.87;;;1.60;;
13816;SDS011;6979;52.116;5.286;2022-07-25T14:33:03;3.43;;;1.80;;
13816;SDS011;6979;52.116;5.286;2022-07-25T14:35:30;1.93;;;1.30;;
13816;SDS011;6979;52.116;5.286;2022-07-25T14:38:00;1.43;;;1.13;;
13816;SDS011;6979;52.116;5.286;2022-07-25T14:40:27;1.70;;;1.03;;
13816;SDS011;6979;52.116;5.286;2022-07-25T14:42:53;1.20;;;1.10;;
13816;SDS011;6979;52.116;5.286;2022-07-25T14:45:20;2.00;;;1.40;;
13816;SDS011;6979;52.116;5.286;2022-07-25T14:47:47;1.30;;;1.20;;
13816;SDS011;6979;52.116;5.286;2022-07-25T14:50:17;1.87;;;1.47;;
13816;SDS011;6979;52.116;5.286;2022-07-25T14:52:44;3.90;;;1.30;;
13816;SDS011;6979;52.116;5.286;2022-07-25T14:55:11;1.70;;;1.10;;
13816;SDS011;6979;52.116;5.286;2022-07-25T14:57:38;1.10;;;1.00;;
13816;SDS011;6979;52.116;5.286;2022-07-25T15:00:12;1.00;;;0.90;;
13816;SDS011;6979;52.116;5.286;2022-07-25T15:02:39;2.30;;;1.10;;
13816;SDS011;6979;52.116;5.286;2022-07-25T15:05:07;2.03;;;1.00;;